Time;durP1;ratioP1;P1;durP2;ratioP2;P2;SDS_P1;SDS_P2;PMS_P1;PMS_P2;Temp;Humidity;BMP_temperature;BMP_pressure;BME280_temperature;BME280_humidity;BME280_pressure;Samples;Min_cycle;Max_cycle;Signal;HPM_P1;HPM_P2
2021/10/30 00:14:24;;;;;;;56.50;25.50;;;;;;;6.55;85.18;101895.91;30639270;29;20733;-76
2021/10/30 00:29:27;;;;;;;63.27;28.50;;;;;;;6.43;84.93;101902.91;30638157;28;20054;-76
2021/10/30 00:44:29;;;;;;;61.60;26.20;;;;;;;6.40;84.54;101910.91;30665633;29;20052;-76
2021/10/30 00:59:32;;;;;;;55.20;25.53;;;;;;;6.43;84.47;101900.22;30662619;29;20389;-76
2021/10/30 01:14:36;;;;;;;52.93;24.33;;;;;;;6.61;83.63;101908.00;30647232;28;20052;-76
2021/10/30 01:29:38;;;;;;;49.70;24.23;;;;;;;6.65;82.85;101911.56;30643318;29;20055;-75
2021/10/30 01:44:40;;;;;;;47.77;23.73;;;;;;;6.58;82.55;101920.28;30650728;29;20055;-75
2021/10/30 01:59:43;;;;;;;49.37;25.37;;;;;;;6.43;82.42;101921.03;30657043;29;20056;-76
2021/10/30 02:14:45;;;;;;;48.27;23.83;;;;;;;6.39;82.80;101931.72;30635567;29;20135;-76
2021/10/30 02:29:47;;;;;;;53.27;24.13;;;;;;;6.16;82.53;101944.19;30654382;29;20147;-76
2021/10/30 02:44:49;;;;;;;47.30;23.90;;;;;;;6.19;82.50;101948.13;30649108;29;20499;-77
2021/10/30 02:59:51;;;;;;;52.93;24.20;;;;;;;6.23;82.22;101960.56;30671505;29;20059;-76
2021/10/30 03:14:52;;;;;;;39.70;22.03;;;;;;;6.15;82.13;101958.78;30670373;28;20085;-75
2021/10/30 03:29:54;;;;;;;48.80;23.40;;;;;;;6.15;82.29;101966.88;30638702;29;20167;-77
2021/10/30 03:44:57;;;;;;;40.13;23.67;;;;;;;6.07;82.37;101967.81;30629161;29;20051;-77
2021/10/30 03:59:59;;;;;;;47.10;24.83;;;;;;;5.85;82.36;101971.78;30645861;29;20055;-77
2021/10/30 04:15:01;;;;;;;52.10;24.87;;;;;;;5.68;82.88;101983.59;30677948;29;20043;-75
2021/10/30 04:30:03;;;;;;;50.53;26.00;;;;;;;5.53;84.68;101988.91;30651506;29;20076;-74
2021/10/30 04:45:06;;;;;;;58.47;26.97;;;;;;;5.55;84.40;102006.28;30656153;29;20058;-76
2021/10/30 05:00:08;;;;;;;58.73;26.13;;;;;;;5.64;84.52;102019.66;30668241;28;20135;-75
2021/10/30 05:15:10;;;;;;;50.03;23.83;;;;;;;6.72;81.14;102025.88;30662432;29;20051;-77
2021/10/30 05:30:12;;;;;;;53.77;21.97;;;;;;;8.16;76.47;102037.03;30657531;29;20559;-76
2021/10/30 05:45:14;;;;;;;42.27;21.80;;;;;;;9.84;67.40;102036.94;30647400;29;20055;-76
2021/10/30 06:00:16;;;;;;;45.03;22.30;;;;;;;11.16;63.77;102041.94;30672269;29;20054;-76
2021/10/30 06:15:18;;;;;;;45.63;21.10;;;;;;;12.69;57.87;102033.91;30639679;29;20055;-77
2021/10/30 06:30:20;;;;;;;47.43;21.70;;;;;;;13.82;55.00;102039.38;30648786;29;20067;-76
2021/10/30 06:45:21;;;;;;;46.57;22.97;;;;;;;12.97;57.97;102047.59;30654048;28;20043;-72
2021/10/30 07:00:23;;;;;;;41.33;20.00;;;;;;;14.70;53.43;102053.13;30613627;29;20078;-74
2021/10/30 07:15:25;;;;;;;43.27;19.10;;;;;;;15.87;50.35;102047.50;30651127;29;20051;-72
2021/10/30 07:30:27;;;;;;;40.97;17.40;;;;;;;16.86;48.01;102036.47;30639569;29;20511;-75
2021/10/30 07:45:30;;;;;;;30.67;16.33;;;;;;;17.45;47.02;102030.44;30626576;29;20048;-74
2021/10/30 08:00:32;;;;;;;27.27;13.98;;;;;;;18.01;46.73;102028.59;30632267;29;20070;-72
2021/10/30 08:15:34;;;;;;;23.88;13.20;;;;;;;18.56;43.92;102025.09;30627509;29;20055;-71
2021/10/30 08:30:36;;;;;;;17.83;10.38;;;;;;;19.21;43.12;102022.38;30620911;29;20066;-72
2021/10/30 11:10:00;;;;;;;8.45;4.22;;;;;;;20.07;33.94;101918.91;31807637;27;20400;-69
2021/10/30 11:25:03;;;;;;;8.48;4.82;;;;;;;20.18;34.46;101913.84;31463177;28;20471;-69
2021/10/30 11:40:05;;;;;;;6.18;4.68;;;;;;;21.58;32.18;101910.75;31312939;28;20071;-70
2021/10/30 11:55:07;;;;;;;8.90;4.50;;;;;;;22.74;31.54;101888.00;31290847;28;20370;-69
2021/10/30 12:10:11;;;;;;;5.90;3.55;;;;;;;22.48;31.57;101887.50;31259278;28;20054;-68
2021/10/30 12:25:14;;;;;;;;;;;;;;;17.83;37.29;101879.84;31238160;28;20434;-70
2021/10/30 12:40:29;;;;;;;8.02;3.53;;;;;;;16.03;39.90;101885.31;31246465;28;19933;-69
2021/10/30 12:55:32;;;;;;;;;;;;;;;15.49;41.96;101887.16;31248491;28;20049;-71
2021/10/30 13:10:38;;;;;;;6.43;3.53;;;;;;;15.10;42.55;101884.84;31215740;28;19928;-72
2021/10/30 13:25:53;;;;;;;10.77;6.20;;;;;;;14.67;44.01;101883.25;31225111;28;20061;-69
2021/10/30 13:41:01;;;;;;;8.70;6.07;;;;;;;14.44;44.79;101893.19;31222483;28;20103;-70
2021/10/30 13:56:04;;;;;;;12.30;5.30;;;;;;;14.23;45.63;101878.47;31222850;28;20064;-70
2021/10/30 14:11:17;;;;;;;8.10;4.80;;;;;;;13.92;46.86;101869.31;31220539;28;20072;-69
2021/10/30 14:26:29;;;;;;;8.13;4.50;;;;;;;13.68;47.74;101881.13;31231393;28;20057;-72
2021/10/30 14:41:36;;;;;;;6.40;4.27;;;;;;;13.45;47.77;101878.09;31222105;28;20041;-70
2021/10/30 14:56:42;;;;;;;11.60;6.40;;;;;;;13.23;48.74;101878.16;31217517;28;20065;-69
2021/10/30 15:11:50;;;;;;;17.03;7.40;;;;;;;13.03;49.98;101879.72;31228779;28;20052;-68
2021/10/30 15:26:55;;;;;;;;;;;;;;;12.89;51.33;101879.75;31210757;28;20050;-68
2021/10/30 15:42:09;;;;;;;20.23;10.07;;;;;;;12.66;50.47;101871.19;31235600;28;19925;-69
2021/10/30 15:57:20;;;;;;;26.63;13.90;;;;;;;12.33;51.52;101886.72;31248305;28;20057;-72
2021/10/30 16:12:25;;;;;;;52.97;22.27;;;;;;;12.09;52.28;101887.44;31244920;28;20049;-71
2021/10/30 16:27:32;;;;;;;59.70;25.23;;;;;;;11.85;53.41;101889.72;31225606;28;20056;-72
2021/10/30 16:42:34;;;;;;;69.00;28.37;;;;;;;11.61;54.12;101898.53;31203310;28;20733;-71
2021/10/30 16:57:40;;;;;;;64.13;27.57;;;;;;;11.37;55.17;101897.22;31216779;28;20436;-72
2021/10/30 17:12:42;;;;;;;67.07;28.93;;;;;;;11.25;55.19;101895.63;31190100;28;20050;-70
2021/10/30 17:27:55;;;;;;;84.77;36.10;;;;;;;11.09;56.18;101897.09;31210623;28;20422;-69
2021/10/30 17:43:10;;;;;;;59.33;26.90;;;;;;;10.62;59.80;101895.16;31217565;28;20034;-70
2021/10/30 17:58:12;;;;;;;60.93;26.93;;;;;;;10.14;61.02;101897.78;31198820;28;20058;-69
2021/10/30 18:13:21;;;;;;;54.43;23.87;;;;;;;9.97;59.81;101904.53;31204971;28;20060;-72
2021/10/30 18:28:26;;;;;;;57.87;22.03;;;;;;;9.76;60.47;101899.66;31216791;28;20045;-70
2021/10/30 18:43:28;;;;;;;58.93;24.17;;;;;;;9.34;62.40;101899.88;31196156;28;20050;-68
2021/10/30 18:58:33;;;;;;;51.57;22.30;;;;;;;8.85;61.85;101902.63;31199406;28;20061;-70
2021/10/30 19:13:41;;;;;;;52.00;20.83;;;;;;;8.80;63.80;101897.50;31221463;28;20072;-71
2021/10/30 19:28:52;;;;;;;43.40;18.33;;;;;;;8.86;63.82;101896.06;31236892;28;20425;-69
2021/10/30 19:44:02;;;;;;;49.10;21.77;;;;;;;8.73;65.19;101881.16;31236911;28;20602;-70
2021/10/30 19:59:09;;;;;;;51.90;22.10;;;;;;;8.93;63.52;101885.34;31228223;28;20060;-70
2021/10/30 20:14:20;;;;;;;66.37;24.97;;;;;;;8.93;63.57;101890.75;31221873;28;20045;-68
2021/10/30 20:29:25;;;;;;;61.10;24.13;;;;;;;8.86;63.26;101885.22;31236189;28;20080;-71
2021/10/30 20:44:31;;;;;;;55.13;24.83;;;;;;;8.60;63.29;101882.47;31229024;28;20058;-70
2021/10/30 20:59:33;;;;;;;42.33;19.87;;;;;;;8.38;63.82;101871.28;31235289;28;20064;-69
2021/10/30 21:14:35;;;;;;;45.83;20.10;;;;;;;8.29;63.92;101869.91;31218020;28;20395;-72
2021/10/30 21:29:38;;;;;;;38.23;18.30;;;;;;;8.16;64.35;101861.19;31227515;28;20052;-70
2021/10/30 21:44:43;;;;;;;44.93;18.73;;;;;;;8.05;64.44;101849.38;31224774;28;20053;-70
2021/10/30 21:59:47;;;;;;;39.27;17.03;;;;;;;7.97;65.46;101850.41;31221317;28;20069;-70
2021/10/30 22:14:52;;;;;;;34.90;16.40;;;;;;;7.88;66.06;101848.69;31228850;28;20055;-69
2021/10/30 22:29:59;;;;;;;37.23;16.50;;;;;;;7.76;66.09;101851.56;31218073;28;20097;-71
2021/10/30 22:45:04;;;;;;;34.43;15.77;;;;;;;7.57;66.54;101859.66;31223552;28;20056;-70
2021/10/30 23:00:17;;;;;;;29.97;16.07;;;;;;;7.36;67.92;101859.22;31219223;28;20057;-68
2021/10/30 23:15:24;;;;;;;36.67;18.47;;;;;;;7.05;67.71;101839.28;31219285;28;20132;-68
2021/10/30 23:30:32;;;;;;;42.97;20.17;;;;;;;6.77;70.26;101844.00;31214633;28;20053;-69
2021/10/30 23:45:40;;;;;;;63.87;25.20;;;;;;;6.65;70.22;101830.59;31220822;28;20046;-69
